^^
Grace C. Lehan Memorial Weather Station Historical Data
Daily Summary for June 2, 2021 Units:  English    Metric   Both
Daily Weekly Monthly Yearly
  High: Low: Average:
Temperature: 82.5 °F 49.6 °F 62.9 °F
Dew Point: 55.9 °F 32.1 °F 46.8 °F
Humidity: 80% 32.3% 58%
Wind Speed: 6.8mph 0mph 1mph
Wind Gust: 17mph - -
Wind- - WNW
Pressure: 29.80 in 29.60 in -
Precipitation: 0.00 in    
 
 
Tabular Data for June 2, 2021
Time Temperature Dew Point Pressure Wind Wind Speed Wind Gust Humidity Rainfall Rate (Hourly) solar
00:09 49.6 °F 32.2 °F 29.78 in Calm     51% 0.00 in 0 W/m2
00:14 49.7 °F 32.5 °F 29.78 in Calm     51.4% 0.00 in 0 W/m2
00:19 49.9 °F 32.7 °F 29.78 in Calm     51.3% 0.00 in 0 W/m2
00:24 49.9 °F 32.2 °F 29.78 in Calm     50.4% 0.00 in 0 W/m2
00:29 50 °F 32.1 °F 29.77 in Calm   1 mph 50% 0.00 in 0 W/m2
00:34 50.1 °F 32.2 °F 29.77 in Calm   1 mph 50% 0.00 in 0 W/m2
00:39 50.2 °F 32.2 °F 29.77 in Calm     49.8% 0.00 in 0 W/m2
00:44 50.3 °F 32.4 °F 29.77 in Calm     49.9% 0.00 in 0 W/m2
00:49 50.4 °F 33 °F 29.77 in Calm     51.1% 0.00 in 0 W/m2
00:54 50.5 °F 33.5 °F 29.76 in Calm     52% 0.00 in 0 W/m2
00:59 50.4 °F 33.5 °F 29.76 in Calm     52% 0.00 in 0 W/m2
01:04 50.4 °F 33.5 °F 29.76 in Calm     52% 0.00 in 0 W/m2
01:09 50.5 °F 33.8 °F 29.76 in Calm     52.5% 0.00 in 0 W/m2
01:14 50.6 °F 34.8 °F 29.76 in Calm     54.3% 0.00 in 0 W/m2
01:19 50.8 °F 34.9 °F 29.76 in Calm     54.2% 0.00 in 0 W/m2
01:24 51 °F 35.1 °F 29.76 in Calm     54.3% 0.00 in 0 W/m2
01:29 51.2 °F 35.5 °F 29.76 in Calm     54.7% 0.00 in 0 W/m2
01:34 51.4 °F 35.9 °F 29.76 in Calm     55.2% 0.00 in 0 W/m2
01:39 51.5 °F 36.4 °F 29.76 in Calm     56% 0.00 in 0 W/m2
01:44 51.6 °F 37.2 °F 29.76 in Calm     57.6% 0.00 in 0 W/m2
01:49 51.6 °F 37.9 °F 29.76 in Calm     59.2% 0.00 in 0 W/m2
01:54 51.5 °F 38.3 °F 29.76 in Calm     60.6% 0.00 in 0 W/m2
01:59 51.3 °F 38 °F 29.77 in Calm     60.1% 0.00 in 0 W/m2
02:04 51.2 °F 38.8 °F 29.77 in Calm     62.3% 0.00 in 0 W/m2
02:09 51.2 °F 39.7 °F 29.77 in Calm     64.6% 0.00 in 0 W/m2
02:14 51 °F 40.4 °F 29.77 in Calm     66.7% 0.00 in 0 W/m2
02:19 50.9 °F 40.9 °F 29.77 in Calm     68.6% 0.00 in 0 W/m2
02:24 50.7 °F 40.8 °F 29.76 in Calm     68.8% 0.00 in 0 W/m2
02:29 50.4 °F 41 °F 29.76 in Calm     70% 0.00 in 0 W/m2
02:34 50.3 °F 40.9 °F 29.75 in Calm     70% 0.00 in 0 W/m2
02:39 50.3 °F 41 °F 29.75 in Calm     70.2% 0.00 in 0 W/m2
02:44 50.3 °F 41.3 °F 29.75 in Calm     71% 0.00 in 0 W/m2
02:49 50.3 °F 41.3 °F 29.75 in Calm     71% 0.00 in 0 W/m2
02:54 50.4 °F 41.4 °F 29.74 in Calm     71% 0.00 in 0 W/m2
02:59 50.5 °F 41.5 °F 29.74 in Calm     71% 0.00 in 0 W/m2
03:04 50.6 °F 41.5 °F 29.74 in Calm     71% 0.00 in 0 W/m2
03:09 50.6 °F 41.6 °F 29.74 in Calm     71% 0.00 in 0 W/m2
03:14 50.7 °F 41.7 °F 29.74 in Calm     71% 0.00 in 0 W/m2
03:19 50.8 °F 41.9 °F 29.73 in Calm     71.5% 0.00 in 0 W/m2
03:24 50.8 °F 41.8 °F 29.73 in Calm     71% 0.00 in 0 W/m2
03:29 50.9 °F 41.9 °F 29.73 in Calm     71.2% 0.00 in 0 W/m2
03:34 51 °F 41.6 °F 29.73 in Calm     70.2% 0.00 in 0 W/m2
03:39 51 °F 41.6 °F 29.73 in Calm     70% 0.00 in 0 W/m2
03:44 51.1 °F 41.7 °F 29.73 in Calm     69.8% 0.00 in 0 W/m2
03:49 51.2 °F 41.5 °F 29.72 in Calm     69.3% 0.00 in 0 W/m2
03:54 51.3 °F 41.8 °F 29.72 in Calm     69.8% 0.00 in 0 W/m2
03:59 51.4 °F 41.6 °F 29.72 in Calm     69.2% 0.00 in 0 W/m2
04:00 51.4 °F 41.6 °F 29.72 in Calm     69% 0.00 in 0 W/m2
04:09 51.5 °F 41.9 °F 29.72 in Calm     69.5% 0.00 in 0 W/m2
04:14 51.6 °F 42.1 °F 29.72 in Calm     70% 0.00 in 0 W/m2
04:19 51.6 °F 41.5 °F 29.71 in Calm     68.3% 0.00 in 0 W/m2
04:24 51.7 °F 41.5 °F 29.71 in Calm     68% 0.00 in 0 W/m2
04:29 51.8 °F 41.1 °F 29.71 in Calm     66.6% 0.00 in 0 W/m2
04:34 51.9 °F 40.9 °F 29.71 in NNW 0.1 mph 1 mph 66% 0.00 in 0 W/m2
04:39 52.1 °F 41.1 °F 29.71 in Calm   1 mph 66% 0.00 in 0 W/m2
04:44 52.2 °F 41.3 °F 29.70 in Calm   1 mph 66.1% 0.00 in 0 W/m2
04:49 52.3 °F 41 °F 29.70 in Calm   1 mph 65.1% 0.00 in 0 W/m2
04:54 52.5 °F 40.8 °F 29.70 in Calm   1 mph 64.3% 0.00 in 0 W/m2
04:59 52.7 °F 40.5 °F 29.70 in NNW 0.1 mph 2 mph 63.1% 0.00 in 0 W/m2
05:04 52.9 °F 40.3 °F 29.70 in NNW 0.1 mph 2 mph 62% 0.00 in 0 W/m2
05:09 53.1 °F 40.3 °F 29.70 in NNW 0.1 mph 2 mph 61.5% 0.00 in 0 W/m2
05:14 53.3 °F 40.2 °F 29.70 in Calm   2 mph 61% 0.00 in 0 W/m2
05:19 53.4 °F 40.1 °F 29.70 in NNW 0.1 mph 2 mph 60.5% 0.00 in 0 W/m2
05:24 53.5 °F 40.2 °F 29.70 in Calm   2 mph 60.4% 0.00 in 0 W/m2
05:29 53.6 °F 40.4 °F 29.70 in NNW 0.1 mph 2 mph 60.6% 0.00 in 0 W/m2
05:34 53.7 °F 40.5 °F 29.70 in NNW 0.2 mph 3 mph 60.9% 0.00 in 0 W/m2
05:39 53.7 °F 40.4 °F 29.70 in NNW 0.1 mph 3 mph 60.5% 0.00 in 0 W/m2
05:44 53.8 °F 40.3 °F 29.70 in Calm   3 mph 60% 0.00 in 0 W/m2
05:49 53.8 °F 40.3 °F 29.70 in NNW 0.1 mph 3 mph 60% 0.00 in 0 W/m2
05:54 53.8 °F 40.3 °F 29.70 in Calm   3 mph 60% 0.00 in 0 W/m2
05:59 53.8 °F 40.1 °F 29.70 in NNW 0.1 mph 3 mph 59.5% 0.00 in 7 W/m2
06:04 53.8 °F 39.8 °F 29.70 in Calm   3 mph 59% 0.00 in 9 W/m2
06:09 53.8 °F 39.8 °F 29.70 in Calm     59% 0.00 in 11 W/m2
06:14 53.8 °F 39.8 °F 29.70 in Calm   1 mph 59% 0.00 in 16 W/m2
06:19 53.7 °F 39.7 °F 29.70 in Calm   1 mph 59% 0.00 in 16 W/m2
06:24 53.6 °F 39.6 °F 29.70 in Calm   1 mph 59% 0.00 in 14 W/m2
06:29 53.5 °F 39.5 °F 29.71 in Calm   1 mph 59% 0.00 in 19 W/m2
06:34 53.3 °F 39.4 °F 29.71 in Calm   1 mph 59.1% 0.00 in 19 W/m2
06:39 53.3 °F 39.7 °F 29.71 in Calm     60% 0.00 in 32 W/m2
06:44 53.2 °F 39.7 °F 29.71 in Calm   1 mph 60% 0.00 in 56 W/m2
06:49 53.1 °F 40 °F 29.71 in Calm   1 mph 61% 0.00 in 70 W/m2
06:54 53 °F 40.4 °F 29.71 in Calm   2 mph 62% 0.00 in 70 W/m2
06:59 53 °F 40.4 °F 29.71 in NNW 0.1 mph 2 mph 62% 0.00 in 95 W/m2
07:04 53.1 °F 40.5 °F 29.70 in NNW 0.1 mph 2 mph 62% 0.00 in 102 W/m2
07:09 53.3 °F 40.3 °F 29.70 in NNW 0.3 mph 3 mph 61.3% 0.00 in 79 W/m2
07:14 53.5 °F 40.2 °F 29.70 in NW 0.5 mph 3 mph 60.4% 0.00 in 88 W/m2
07:19 53.7 °F 40.2 °F 29.71 in NW 0.3 mph 3 mph 60% 0.00 in 95 W/m2
07:24 54 °F 40 °F 29.71 in NW 0.3 mph 3 mph 59.1% 0.00 in 86 W/m2
07:29 54.2 °F 40.2 °F 29.71 in NW 0.5 mph 3 mph 59% 0.00 in 107 W/m2
07:34 54.4 °F 40.2 °F 29.71 in NW 0.3 mph 3 mph 58.6% 0.00 in 155 W/m2
07:39 54.7 °F 40.4 °F 29.70 in NW 0.4 mph 3 mph 58.5% 0.00 in 269 W/m2
07:44 55.2 °F 40.9 °F 29.70 in NW 0.3 mph 3 mph 58.4% 0.00 in 264 W/m2
07:49 56 °F 40.8 °F 29.70 in NW 0.2 mph 3 mph 56.6% 0.00 in 343 W/m2
07:54 56.9 °F 41.5 °F 29.70 in WNW 0.1 mph 3 mph 56.4% 0.00 in 383 W/m2
07:59 58 °F 41.8 °F 29.70 in WNW 0.3 mph 3 mph 54.7% 0.00 in 392 W/m2
08:00 58.5 °F 41.5 °F 29.70 in Calm   3 mph 53% 0.00 in 392 W/m2
08:09 60.1 °F 42.3 °F 29.70 in WNW 0.3 mph 4 mph 51.7% 0.00 in 418 W/m2
08:14 61 °F 41.6 °F 29.70 in WSW 0.3 mph 4 mph 48.8% 0.00 in 438 W/m2
08:19 61.8 °F 41.7 °F 29.69 in SW 0.2 mph 4 mph 47.6% 0.00 in 450 W/m2
08:24 62.6 °F 41.3 °F 29.70 in SSW 0.8 mph 5 mph 45.7% 0.00 in 466 W/m2
08:29 63.3 °F 41.7 °F 29.70 in SW 0.3 mph 5 mph 45.2% 0.00 in 471 W/m2
08:34 63.9 °F 41.2 °F 29.69 in SW 0.1 mph 5 mph 43.3% 0.00 in 506 W/m2
08:39 64.6 °F 41.9 °F 29.69 in SW 0.3 mph 3 mph 43.6% 0.00 in 517 W/m2
08:44 65.3 °F 41.7 °F 29.69 in SW 0.6 mph 4 mph 42.2% 0.00 in 533 W/m2
08:49 66 °F 41.6 °F 29.69 in Calm   4 mph 41% 0.00 in 552 W/m2
08:51 66.3 °F 41.1 °F 29.69 in Calm   4 mph 39.8% 0.00 in 545 W/m2
09:00 66.9 °F 42.5 °F 29.68 in Calm   4 mph 41% 0.00 in 523 W/m2
09:30 70.8 °F 43.3 °F 29.68 in SW 1 mph 9 mph 37% 0.00 in 618 W/m2
10:00 72 °F 43.6 °F 29.66 in SW 2 mph 11 mph 36% 0.00 in 713 W/m2
10:30 75.2 °F 46.4 °F 29.65 in WSW 1 mph 10 mph 36% 0.00 in 785 W/m2
11:00 76.9 °F 47.9 °F 29.66 in WSW 1 mph 7 mph 36% 0.00 in 859 W/m2
11:30 78.2 °F 50.5 °F 29.65 in WSW 2 mph 10 mph 38% 0.00 in 894 W/m2
12:04 79.1 °F 47.2 °F 29.64 in West 1.1 mph 3 mph 32.5% 0.00 in 499 W/m2
12:09 78.7 °F 48.1 °F 29.64 in SW 2.7 mph 12 mph 34.1% 0.00 in 591 W/m2
12:14 78 °F 48 °F 29.63 in WSW 1.4 mph 12 mph 34.8% 0.00 in 591 W/m2
12:19 77.7 °F 49 °F 29.63 in WSW 1 mph 12 mph 36.5% 0.00 in 819 W/m2
12:24 77.8 °F 48.4 °F 29.63 in SW 1.3 mph 12 mph 35.5% 0.00 in 905 W/m2
12:29 78 °F 48.7 °F 29.63 in SW 0.9 mph 12 mph 35.7% 0.00 in 905 W/m2
12:34 78 °F 49.6 °F 29.62 in SW 0.3 mph 12 mph 37% 0.00 in 656 W/m2
12:39 78.1 °F 50.1 °F 29.62 in West 1.5 mph 7 mph 37.5% 0.00 in 527 W/m2
12:44 78.2 °F 49 °F 29.62 in WNW 2.5 mph 11 mph 35.9% 0.00 in 708 W/m2
12:49 78.4 °F 50 °F 29.62 in WSW 0.4 mph 11 mph 37% 0.00 in 1048 W/m2
12:54 79 °F 50.4 °F 29.62 in West 3.4 mph 12 mph 36.8% 0.00 in 1071 W/m2
12:59 79.5 °F 48.5 °F 29.62 in WNW 6.7 mph 14 mph 33.7% 0.00 in 1071 W/m2
13:04 79.4 °F 49.1 °F 29.61 in WNW 4.3 mph 14 mph 34.7% 0.00 in 1028 W/m2
13:09 79.5 °F 49.7 °F 29.61 in WNW 2.2 mph 12 mph 35.3% 0.00 in 986 W/m2
13:14 79.9 °F 50.4 °F 29.61 in West 1.8 mph 12 mph 35.8% 0.00 in 1118 W/m2
13:19 80 °F 49.5 °F 29.61 in SW 1.9 mph 15 mph 34.5% 0.00 in 1118 W/m2
13:24 80 °F 50.2 °F 29.61 in WNW 1.3 mph 15 mph 35.3% 0.00 in 1232 W/m2
13:29 80.1 °F 50.5 °F 29.60 in West 0.6 mph 15 mph 35.6% 0.00 in 1158 W/m2
13:34 80.6 °F 50.7 °F 29.61 in WSW 1.7 mph 15 mph 35.3% 0.00 in 578 W/m2
13:39 81.1 °F 50.8 °F 29.60 in West 2.6 mph 9 mph 35% 0.00 in 1137 W/m2
13:44 81.2 °F 50.2 °F 29.60 in SW 2.7 mph 9 mph 34.1% 0.00 in 1092 W/m2
13:49 81 °F 49.6 °F 29.60 in SW 2.4 mph 9 mph 33.5% 0.00 in 1113 W/m2
13:54 80.9 °F 50.6 °F 29.60 in WSW 2.7 mph 10 mph 35% 0.00 in 761 W/m2
13:59 80.8 °F 49.4 °F 29.60 in SW 4.5 mph 16 mph 33.4% 0.00 in 761 W/m2
14:04 80.5 °F 50.3 °F 29.61 in West 4 mph 16 mph 34.9% 0.00 in 1063 W/m2
14:09 80.7 °F 51.5 °F 29.61 in West 1.2 mph 12 mph 36.2% 0.00 in 1041 W/m2
14:14 81.2 °F 50.7 °F 29.61 in West 1.2 mph 12 mph 34.6% 0.00 in 960 W/m2
14:19 81.6 °F 50.3 °F 29.61 in West 1.7 mph 12 mph 33.8% 0.00 in 970 W/m2
14:24 81.7 °F 50.2 °F 29.61 in WSW 4.6 mph 12 mph 33.4% 0.00 in 970 W/m2
14:29 81.6 °F 49.7 °F 29.61 in SW 0.4 mph 12 mph 32.9% 0.00 in 503 W/m2
14:34 81.4 °F 49.8 °F 29.61 in WSW 1.9 mph 12 mph 33.3% 0.00 in 1053 W/m2
14:39 81.5 °F 52.2 °F 29.60 in WNW 0.9 mph 7 mph 36.3% 0.00 in 997 W/m2
14:44 82.1 °F 51.2 °F 29.60 in WNW 4.3 mph 9 mph 34.3% 0.00 in 918 W/m2
14:49 82.4 °F 50.6 °F 29.60 in WNW 4.9 mph 14 mph 33.2% 0.00 in 912 W/m2
14:54 82.4 °F 49.9 °F 29.61 in WNW 6.8 mph 16 mph 32.3% 0.00 in 912 W/m2
14:59 82 °F 50.9 °F 29.60 in West 2.7 mph 16 mph 34% 0.00 in 306 W/m2
15:04 81.8 °F 51 °F 29.61 in NW 1.1 mph 16 mph 34.3% 0.00 in 306 W/m2
15:09 81.9 °F 51.2 °F 29.61 in WNW 0.7 mph 9 mph 34.6% 0.00 in 318 W/m2
15:14 82 °F 50.8 °F 29.61 in WNW 4.3 mph 14 mph 33.9% 0.00 in 926 W/m2
15:19 82.1 °F 51.5 °F 29.61 in WNW 4.5 mph 16 mph 34.7% 0.00 in 926 W/m2
15:24 82.3 °F 52.5 °F 29.61 in WNW 6.5 mph 17 mph 35.7% 0.00 in 849 W/m2
15:29 82.4 °F 51.8 °F 29.61 in WNW 4.4 mph 17 mph 34.7% 0.00 in 807 W/m2
15:34 82.5 °F 52.7 °F 29.61 in WNW 1.4 mph 17 mph 35.7% 0.00 in 807 W/m2
15:39 82.5 °F 52.9 °F 29.60 in WNW 2.7 mph 11 mph 36% 0.00 in 457 W/m2
15:44 82.2 °F 51.4 °F 29.61 in West 3.5 mph 11 mph 34.4% 0.00 in 308 W/m2
15:49 81.8 °F 52.3 °F 29.61 in WNW 3.2 mph 11 mph 36% 0.00 in 308 W/m2
15:54 81.4 °F 51.9 °F 29.61 in NW 4.3 mph 11 mph 36% 0.00 in 181 W/m2
15:59 81 °F 51.4 °F 29.61 in NW 6.4 mph 17 mph 35.8% 0.00 in 165 W/m2
16:04 80.3 °F 50.9 °F 29.62 in NE 0.3 mph 2 mph 36% 0.00 in 199 W/m2
16:09 79.9 °F 50.7 °F 29.62 in NE 1.1 mph 5 mph 36.1% 0.00 in 225 W/m2
16:14 78.9 °F 50.1 °F 29.64 in NNW 4.3 mph 17 mph 36.5% 0.00 in 114 W/m2
16:19 78 °F 49.9 °F 29.64 in NNW 3.4 mph 17 mph 37.4% 0.00 in 135 W/m2
16:24 77.3 °F 50.4 °F 29.64 in NW 4.7 mph 17 mph 39% 0.00 in 172 W/m2
16:29 76.2 °F 51.5 °F 29.65 in NW 4.8 mph 17 mph 42.1% 0.00 in 162 W/m2
16:34 75 °F 51.8 °F 29.66 in NNW 1.6 mph 17 mph 44.2% 0.00 in 172 W/m2
16:39 74.1 °F 52 °F 29.67 in NNW 3.7 mph 14 mph 45.8% 0.00 in 167 W/m2
16:44 73.5 °F 51.9 °F 29.68 in NNW 3.7 mph 14 mph 46.8% 0.00 in 169 W/m2
16:49 72.9 °F 52.2 °F 29.68 in North 0.9 mph 14 mph 48.2% 0.00 in 181 W/m2
16:54 72.5 °F 52.3 °F 29.69 in North 0.3 mph 14 mph 49% 0.00 in 123 W/m2
16:59 72.2 °F 52.7 °F 29.69 in NW 0.6 mph 14 mph 50.4% 0.00 in 141 W/m2
17:04 72 °F 52.7 °F 29.69 in NNW 1.3 mph 14 mph 50.6% 0.00 in 83 W/m2
17:09 71.8 °F 52.9 °F 29.69 in NW 3.4 mph 10 mph 51.3% 0.00 in 97 W/m2
17:14 71.4 °F 53.1 °F 29.70 in NW 2 mph 11 mph 52.5% 0.00 in 77 W/m2
17:19 70.9 °F 53.3 °F 29.70 in NW 5.4 mph 13 mph 53.6% 0.00 in 76 W/m2
17:24 70.3 °F 53.4 °F 29.70 in NW 2.4 mph 13 mph 55% 0.00 in 97 W/m2
17:29 69.7 °F 53.4 °F 29.70 in NW 4.5 mph 17 mph 56.3% 0.00 in 116 W/m2
17:34 69.1 °F 53.3 °F 29.69 in NW 5.1 mph 17 mph 57.2% 0.00 in 107 W/m2
17:39 68.6 °F 53.5 °F 29.69 in NW 2.4 mph 17 mph 58.5% 0.00 in 93 W/m2
17:44 68.3 °F 53.7 °F 29.70 in NW 0.3 mph 17 mph 59.5% 0.00 in 58 W/m2
17:49 68.1 °F 53.9 °F 29.70 in NNW 2.1 mph 17 mph 60.3% 0.00 in 32 W/m2
17:54 67.8 °F 53.9 °F 29.72 in NW 5.1 mph 17 mph 61% 0.00 in 23 W/m2
17:59 67.4 °F 54.2 °F 29.73 in NW 3.2 mph 17 mph 62.5% 0.00 in 12 W/m2
18:04 67.1 °F 54.4 °F 29.73 in NNW 1.2 mph 17 mph 63.8% 0.00 in 7 W/m2
18:09 66.8 °F 54.8 °F 29.73 in NW 3.9 mph 13 mph 65.5% 0.00 in 7 W/m2
18:14 66.4 °F 54.7 °F 29.74 in NNW 2.2 mph 13 mph 66% 0.00 in 5 W/m2
18:19 66 °F 55 °F 29.74 in NNW 2.6 mph 13 mph 67.6% 0.00 in 0 W/m2
18:24 65.7 °F 55.2 °F 29.75 in NNW 0.6 mph 13 mph 68.9% 0.00 in 0 W/m2
18:29 65.3 °F 55.4 °F 29.74 in NE 1.3 mph 13 mph 70.3% 0.00 in 7 W/m2
18:34 64.8 °F 55.6 °F 29.74 in NE 0.4 mph 13 mph 72% 0.00 in 7 W/m2
18:39 64.3 °F 55.9 °F 29.75 in Calm   4 mph 74.1% 0.00 in 12 W/m2
18:44 63.9 °F 55.8 °F 29.75 in NNW 1.4 mph 7 mph 75% 0.00 in 21 W/m2
18:49 63.6 °F 55.8 °F 29.75 in NNW 1.6 mph 11 mph 75.6% 0.00 in 9 W/m2
18:54 63.5 °F 55.6 °F 29.76 in NNW 1.3 mph 11 mph 75.6% 0.00 in 0 W/m2
18:59 63.4 °F 55.7 °F 29.76 in North 1.2 mph 11 mph 76% 0.00 in 5 W/m2
19:04 63.3 °F 55.6 °F 29.75 in NNW 1.6 mph 11 mph 76% 0.00 in 0 W/m2
19:09 63.2 °F 55.7 °F 29.75 in NW 2 mph 10 mph 76.4% 0.00 in 0 W/m2
19:14 63 °F 55.4 °F 29.76 in NW 4 mph 13 mph 76.1% 0.00 in 0 W/m2
19:19 62.8 °F 55.4 °F 29.76 in NNW 1.9 mph 13 mph 76.9% 0.00 in 0 W/m2
19:24 62.5 °F 55.5 °F 29.77 in North 1 mph 13 mph 77.6% 0.00 in 0 W/m2
19:29 62.4 °F 55.5 °F 29.76 in NNW 0.4 mph 13 mph 78% 0.00 in 0 W/m2
19:34 62.3 °F 55.3 °F 29.76 in NNW 1 mph 13 mph 78% 0.00 in 0 W/m2
19:39 62.1 °F 54.9 °F 29.76 in NNE 0.1 mph 6 mph 77.2% 0.00 in 0 W/m2
19:44 61.9 °F 54.9 °F 29.77 in North 0.4 mph 6 mph 77.9% 0.00 in 0 W/m2
19:49 61.7 °F 54.8 °F 29.77 in NNE 0.3 mph 6 mph 78% 0.00 in 0 W/m2
19:54 61.5 °F 54.6 °F 29.77 in Calm   6 mph 78% 0.00 in 0 W/m2
19:59 61.4 °F 54.5 °F 29.76 in Calm   6 mph 78% 0.00 in 0 W/m2
20:00 61.3 °F 54.4 °F 29.76 in Calm   6 mph 78% 0.00 in 0 W/m2
20:09 61.2 °F 54.3 °F 29.77 in North 1.5 mph 5 mph 78% 0.00 in 0 W/m2
20:14 61 °F 54.1 °F 29.76 in NW 2.1 mph 6 mph 78% 0.00 in 0 W/m2
20:19 60.9 °F 54 °F 29.76 in NW 1 mph 7 mph 78.2% 0.00 in 0 W/m2
20:24 60.8 °F 54.2 °F 29.76 in NNW 1.7 mph 7 mph 79% 0.00 in 0 W/m2
20:29 60.7 °F 54.1 °F 29.76 in NNW 0.7 mph 7 mph 79% 0.00 in 0 W/m2
20:34 60.5 °F 54 °F 29.76 in Calm   7 mph 79% 0.00 in 0 W/m2
20:39 60.5 °F 54.1 °F 29.76 in Calm     79.5% 0.00 in 0 W/m2
20:44 60.4 °F 54.2 °F 29.76 in Calm     80% 0.00 in 0 W/m2
20:49 60.4 °F 54.2 °F 29.76 in Calm     80% 0.00 in 0 W/m2
20:54 60.3 °F 54.1 °F 29.76 in Calm     80% 0.00 in 0 W/m2
20:59 60.3 °F 54.1 °F 29.76 in Calm     80% 0.00 in 0 W/m2
21:04 60.3 °F 54.1 °F 29.76 in NNW 0.1 mph 2 mph 80% 0.00 in 0 W/m2
21:09 60.3 °F 54.1 °F 29.76 in Calm   2 mph 80% 0.00 in 0 W/m2
21:14 60.3 °F 54 °F 29.77 in NNW 0.6 mph 3 mph 79.8% 0.00 in 0 W/m2
21:19 60.3 °F 53.7 °F 29.77 in Calm   3 mph 79% 0.00 in 0 W/m2
21:24 60.3 °F 53.7 °F 29.77 in Calm   3 mph 79% 0.00 in 0 W/m2
21:29 60.2 °F 53.7 °F 29.78 in Calm   3 mph 79% 0.00 in 0 W/m2
21:34 60.2 °F 53.4 °F 29.77 in NNW 0.1 mph 3 mph 78.3% 0.00 in 0 W/m2
21:39 60.2 °F 52.8 °F 29.77 in Calm   2 mph 76.6% 0.00 in 0 W/m2
21:44 60.2 °F 52.6 °F 29.77 in Calm   2 mph 76% 0.00 in 0 W/m2
21:49 60.2 °F 52.6 °F 29.77 in NNW 0.3 mph 4 mph 76% 0.00 in 0 W/m2
21:54 60.2 °F 52.6 °F 29.77 in NNW 0.6 mph 4 mph 75.8% 0.00 in 0 W/m2
21:59 60.2 °F 52.4 °F 29.78 in NNW 0.3 mph 5 mph 75.4% 0.00 in 0 W/m2
22:04 60.1 °F 52 °F 29.78 in WNW 0.9 mph 6 mph 74.6% 0.00 in 0 W/m2
22:09 60.1 °F 51.9 °F 29.78 in Calm   6 mph 74.2% 0.00 in 0 W/m2
22:14 60.1 °F 51.8 °F 29.78 in Calm   6 mph 74% 0.00 in 0 W/m2
22:19 60 °F 51.7 °F 29.78 in Calm   6 mph 74% 0.00 in 0 W/m2
22:24 60 °F 51.7 °F 29.78 in Calm   6 mph 74% 0.00 in 0 W/m2
22:29 60 °F 51.4 °F 29.78 in Calm   6 mph 73.2% 0.00 in 0 W/m2
22:34 60 °F 51.4 °F 29.78 in WNW 0.1 mph 6 mph 73.1% 0.00 in 0 W/m2
22:39 60.1 °F 51.7 °F 29.78 in West 2.1 mph 7 mph 73.8% 0.00 in 0 W/m2
22:44 60 °F 51.4 °F 29.78 in NW 1 mph 9 mph 73% 0.00 in 0 W/m2
22:49 60 °F 51.3 °F 29.79 in NW 0.1 mph 9 mph 73% 0.00 in 0 W/m2
22:54 60 °F 51.3 °F 29.79 in West 0.5 mph 9 mph 73% 0.00 in 0 W/m2
22:59 60 °F 51.3 °F 29.79 in Calm   9 mph 73% 0.00 in 0 W/m2
23:04 60 °F 51.3 °F 29.80 in Calm   9 mph 73% 0.00 in 0 W/m2
23:09 60 °F 51.3 °F 29.80 in Calm   1 mph 73% 0.00 in 0 W/m2
23:14 60 °F 51.3 °F 29.80 in WSW 0.1 mph 2 mph 73% 0.00 in 0 W/m2
23:19 60 °F 51.3 °F 29.80 in WSW 0.4 mph 4 mph 73% 0.00 in 0 W/m2
23:24 59.9 °F 51.4 °F 29.80 in Calm   4 mph 73.5% 0.00 in 0 W/m2
23:29 59.9 °F 51.6 °F 29.80 in Calm   4 mph 74% 0.00 in 0 W/m2
23:34 59.9 °F 51.6 °F 29.80 in Calm   4 mph 74% 0.00 in 0 W/m2
23:39 59.8 °F 51.4 °F 29.80 in WSW 0.2 mph 3 mph 73.7% 0.00 in 0 W/m2
23:44 59.7 °F 51.2 °F 29.80 in WSW 0.1 mph 3 mph 73.2% 0.00 in 0 W/m2
23:49 59.7 °F 51.2 °F 29.80 in Calm   3 mph 73.4% 0.00 in 0 W/m2
23:54 59.6 °F 51 °F 29.80 in Calm   3 mph 73% 0.00 in 0 W/m2
23:59 59.6 °F 51.2 °F 29.80 in Calm   3 mph 73.7% 0.00 in 0 W/m2
Hartford County Weather
Compliments of Weather Underground - 4 mb